createdAt,value
2022-12-23T00:01:09.288Z,89.77
2022-12-23T00:03:35.890Z,89.79
2022-12-23T00:06:09.282Z,89.86
2022-12-23T00:08:36.576Z,89.62
2022-12-23T00:11:05.363Z,89.40
2022-12-23T00:13:51.539Z,89.83
2022-12-23T00:16:18.024Z,90.01
2022-12-23T00:18:44.559Z,89.44
2022-12-23T00:21:14.392Z,89.17
2022-12-23T00:23:44.790Z,88.89
2022-12-23T00:26:21.043Z,88.90
2022-12-23T00:28:47.994Z,89.02
2022-12-23T00:31:15.291Z,89.50
2022-12-23T00:33:43.743Z,89.44
2022-12-23T00:36:23.932Z,89.49
2022-12-23T00:39:09.071Z,89.23
2022-12-23T00:41:54.457Z,89.46
2022-12-23T00:44:21.301Z,89.96
2022-12-23T00:46:47.957Z,90.45
2022-12-23T00:49:35.087Z,90.71
2022-12-23T00:52:02.366Z,91.78
2022-12-23T00:54:29.644Z,92.51
2022-12-23T00:56:56.063Z,93.06
2022-12-23T00:59:22.521Z,92.85
2022-12-23T01:02:07.633Z,92.75
2022-12-23T01:04:53.522Z,91.44
2022-12-23T01:07:21.246Z,91.71
2022-12-23T01:09:47.786Z,90.75
2022-12-23T01:12:14.255Z,90.11
2022-12-23T01:14:41.123Z,89.18
2022-12-23T01:17:08.230Z,88.56
2022-12-23T01:19:35.382Z,88.29
2022-12-23T01:22:01.870Z,88.51
2022-12-23T01:24:32.443Z,88.47
2022-12-23T01:26:59.380Z,89.00
2022-12-23T01:29:26.238Z,88.87
2022-12-23T01:31:52.757Z,89.19
2022-12-23T01:34:19.629Z,89.32
2022-12-23T01:36:46.099Z,89.44
2022-12-23T01:39:12.521Z,89.62
2022-12-23T01:41:57.752Z,89.69
2022-12-23T01:44:51.938Z,89.60
2022-12-23T01:47:30.223Z,89.74
2022-12-23T01:50:03.179Z,89.73
2022-12-23T01:52:31.831Z,89.95
2022-12-23T01:54:58.337Z,89.97
2022-12-23T01:57:24.906Z,90.02
2022-12-23T02:00:10.410Z,89.89
2022-12-23T02:02:57.789Z,90.34
2022-12-23T02:05:24.488Z,90.56
2022-12-23T02:08:10.828Z,90.50
2022-12-23T02:11:02.713Z,90.73
2022-12-23T02:14:04.885Z,90.45
2022-12-23T02:16:39.241Z,90.77
2022-12-23T02:19:14.762Z,90.79
2022-12-23T02:22:31.369Z,90.18
2022-12-23T02:25:09.507Z,90.42
2022-12-23T02:27:55.765Z,90.23
2022-12-23T02:30:53.217Z,90.44
2022-12-23T02:33:51.774Z,90.66
2022-12-23T02:36:43.498Z,90.11
2022-12-23T02:39:20.896Z,89.96
2022-12-23T02:42:02.218Z,89.60
2022-12-23T02:44:43.415Z,89.13
2022-12-23T02:47:37.739Z,89.13
2022-12-23T02:50:18.492Z,89.03
2022-12-23T02:52:47.404Z,88.74
2022-12-23T02:55:19.508Z,88.28
2022-12-23T02:57:50.826Z,87.93
2022-12-23T03:00:18.430Z,87.64
2022-12-23T03:02:45.416Z,88.05
2022-12-23T03:05:24.183Z,88.13
2022-12-23T03:07:52.711Z,88.37
2022-12-23T03:10:33.992Z,88.45
2022-12-23T03:13:09.387Z,88.29
2022-12-23T03:15:44.930Z,88.09
2022-12-23T03:18:37.610Z,88.60
2022-12-23T03:21:08.894Z,88.68
2022-12-23T03:23:42.698Z,88.66
2022-12-23T03:26:16.818Z,88.59
2022-12-23T03:28:53.852Z,88.88
2022-12-23T03:31:25.941Z,89.58
2022-12-23T03:33:58.045Z,89.72
2022-12-23T03:36:31.650Z,90.13
2022-12-23T03:38:58.968Z,90.05
2022-12-23T03:41:33.396Z,90.15
2022-12-23T03:44:06.523Z,89.96
2022-12-23T03:46:39.095Z,90.07
2022-12-23T03:49:15.040Z,89.96
2022-12-23T03:51:53.529Z,89.91
2022-12-23T03:54:27.296Z,89.98
2022-12-23T03:57:02.082Z,90.29
2022-12-23T03:59:33.700Z,90.84
2022-12-23T04:02:14.908Z,90.78
2022-12-23T04:05:15.737Z,90.42
2022-12-23T04:07:56.064Z,90.41
2022-12-23T04:10:23.428Z,90.29
2022-12-23T04:12:50.240Z,90.38
2022-12-23T04:15:22.197Z,90.05
2022-12-23T04:17:49.824Z,89.81
2022-12-23T04:20:16.586Z,90.18
2022-12-23T04:22:45.973Z,90.57
2022-12-23T04:25:14.631Z,90.50
2022-12-23T04:27:41.166Z,90.16
2022-12-23T04:30:10.100Z,90.49
2022-12-23T04:32:37.115Z,90.43
2022-12-23T04:35:04.210Z,89.96
2022-12-23T04:37:30.635Z,90.06
2022-12-23T04:39:57.073Z,90.02
2022-12-23T04:42:23.932Z,90.21
2022-12-23T04:44:50.407Z,90.02
2022-12-23T04:47:16.912Z,90.33
2022-12-23T04:49:43.322Z,89.70
2022-12-23T04:52:09.782Z,89.62
2022-12-23T04:54:39.314Z,89.78
2022-12-23T04:57:10.597Z,89.81
2022-12-23T04:59:37.039Z,89.85
2022-12-23T05:02:03.813Z,89.91
2022-12-23T05:04:30.450Z,89.87
2022-12-23T05:06:56.976Z,89.82
2022-12-23T05:09:23.435Z,89.98
2022-12-23T05:11:49.877Z,89.80
2022-12-23T05:14:16.355Z,89.79
2022-12-23T05:16:42.872Z,89.40
2022-12-23T05:19:10.199Z,89.94
2022-12-23T05:21:36.915Z,90.11
2022-12-23T05:24:03.633Z,89.76
2022-12-23T05:26:30.187Z,89.67
2022-12-23T05:28:56.652Z,89.51
2022-12-23T05:31:23.393Z,89.52
2022-12-23T05:33:50.012Z,89.41
2022-12-23T05:36:16.547Z,89.70
2022-12-23T05:38:42.982Z,89.78
2022-12-23T05:41:09.555Z,89.74
2022-12-23T05:43:35.987Z,90.14
2022-12-23T05:46:02.497Z,89.82
2022-12-23T05:48:29.016Z,89.89
2022-12-23T05:50:55.581Z,89.76
2022-12-23T05:53:22.190Z,90.32
2022-12-23T05:55:48.682Z,90.02
2022-12-23T05:58:15.186Z,89.84
2022-12-23T06:00:41.682Z,89.59
2022-12-23T06:03:08.341Z,89.70
2022-12-23T06:05:37.670Z,89.54
2022-12-23T06:08:04.560Z,89.65
2022-12-23T06:10:31.126Z,89.66
2022-12-23T06:12:57.579Z,90.01
2022-12-23T06:15:24.037Z,90.29
2022-12-23T06:17:50.516Z,89.89
2022-12-23T06:20:20.625Z,90.27
2022-12-23T06:22:47.989Z,90.08
2022-12-23T06:25:14.721Z,89.98
2022-12-23T06:27:41.218Z,89.77
2022-12-23T06:30:08.315Z,89.68
2022-12-23T06:32:38.538Z,89.54
2022-12-23T06:35:06.639Z,89.45
2022-12-23T06:37:33.197Z,89.49
2022-12-23T06:39:59.809Z,89.19
2022-12-23T06:42:26.288Z,89.17
2022-12-23T06:44:52.710Z,88.81
2022-12-23T06:47:19.155Z,88.79
2022-12-23T06:49:45.620Z,88.45
2022-12-23T06:52:12.064Z,88.52
2022-12-23T06:54:38.489Z,88.31
2022-12-23T06:57:04.952Z,88.32
2022-12-23T06:59:31.588Z,88.40
2022-12-23T07:01:58.155Z,88.11
2022-12-23T07:04:24.762Z,88.14
2022-12-23T07:06:51.164Z,88.28
2022-12-23T07:09:17.688Z,87.81
2022-12-23T07:11:44.169Z,87.81
2022-12-23T07:14:10.818Z,87.68
2022-12-23T07:16:37.466Z,87.14
2022-12-23T07:19:04.227Z,87.27
2022-12-23T07:21:30.762Z,87.25
2022-12-23T07:23:57.280Z,87.39
2022-12-23T07:26:23.730Z,87.55
2022-12-23T07:28:50.186Z,87.38
2022-12-23T07:31:16.823Z,87.50
2022-12-23T07:33:43.452Z,87.61
2022-12-23T07:36:09.999Z,87.78
2022-12-23T07:38:36.615Z,87.47
2022-12-23T07:41:03.176Z,87.56
2022-12-23T07:43:29.673Z,87.38
2022-12-23T07:46:00.244Z,87.18
2022-12-23T07:48:27.655Z,87.18
2022-12-23T07:51:00.563Z,86.60
2022-12-23T07:53:27.066Z,86.78
2022-12-23T07:55:56.659Z,86.12
2022-12-23T07:58:23.976Z,86.00
2022-12-23T08:00:50.485Z,85.85
2022-12-23T08:03:17.076Z,85.50
2022-12-23T08:05:43.715Z,85.67
2022-12-23T08:08:10.165Z,86.14
2022-12-23T08:10:38.250Z,85.88
2022-12-23T08:13:06.685Z,85.40
2022-12-23T08:15:33.132Z,84.82
2022-12-23T08:17:59.612Z,85.15
2022-12-23T08:20:26.054Z,85.41
2022-12-23T08:22:52.711Z,84.31
2022-12-23T08:25:19.163Z,85.34
2022-12-23T08:27:45.596Z,85.14
2022-12-23T08:30:12.411Z,85.11
2022-12-23T08:32:38.918Z,84.86
2022-12-23T08:35:05.937Z,85.13
2022-12-23T08:37:32.407Z,84.43
2022-12-23T08:39:58.830Z,84.32
2022-12-23T08:42:25.252Z,84.37
2022-12-23T08:44:51.666Z,84.70
2022-12-23T08:47:18.110Z,84.87
2022-12-23T08:49:44.571Z,84.77
2022-12-23T08:52:11.131Z,84.69
2022-12-23T08:54:37.598Z,84.25
2022-12-23T08:57:04.148Z,84.76
2022-12-23T08:59:30.566Z,85.35
2022-12-23T09:01:59.575Z,84.98
2022-12-23T09:04:26.115Z,84.98
2022-12-23T09:06:52.537Z,84.76
2022-12-23T09:09:18.953Z,84.62
2022-12-23T09:11:45.438Z,84.98
2022-12-23T09:14:11.939Z,85.09
2022-12-23T09:16:38.627Z,84.75
2022-12-23T09:19:05.144Z,84.21
2022-12-23T09:21:31.659Z,83.94
2022-12-23T09:23:58.124Z,83.54
2022-12-23T09:26:27.173Z,83.42
2022-12-23T09:28:54.107Z,83.44
2022-12-23T09:31:21.425Z,83.03
2022-12-23T09:33:49.975Z,83.46
2022-12-23T09:36:16.935Z,83.25
2022-12-23T09:38:43.776Z,82.75
2022-12-23T09:41:16.478Z,83.22
2022-12-23T09:44:10.716Z,83.39
2022-12-23T09:46:43.068Z,83.02
2022-12-23T09:49:13.416Z,82.72
2022-12-23T09:51:39.907Z,82.68
2022-12-23T09:54:17.196Z,82.76
2022-12-23T09:57:11.589Z,82.46
2022-12-23T09:59:56.542Z,82.33
2022-12-23T10:02:42.438Z,82.40
2022-12-23T10:05:30.771Z,82.69
2022-12-23T10:08:27.817Z,83.12
2022-12-23T10:10:56.780Z,82.08
2022-12-23T10:13:37.937Z,82.43
2022-12-23T10:16:09.494Z,82.30
2022-12-23T10:18:52.116Z,82.28
2022-12-23T10:21:28.798Z,82.08
2022-12-23T10:23:55.390Z,82.29
2022-12-23T10:26:25.476Z,82.11
2022-12-23T10:29:19.046Z,81.44
2022-12-23T10:32:04.907Z,82.02
2022-12-23T10:34:43.474Z,81.61
2022-12-23T10:37:24.550Z,81.04
2022-12-23T10:40:00.003Z,80.80
2022-12-23T10:43:08.106Z,82.06
2022-12-23T10:46:05.737Z,82.14
2022-12-23T10:49:02.780Z,81.82
2022-12-23T10:51:41.985Z,81.33
2022-12-23T10:54:17.511Z,80.76
2022-12-23T10:56:44.515Z,81.07
2022-12-23T10:59:15.485Z,81.04
2022-12-23T11:01:47.625Z,81.59
2022-12-23T11:04:21.581Z,81.51
2022-12-23T11:07:10.854Z,81.77
2022-12-23T11:09:42.663Z,82.19
2022-12-23T11:12:11.627Z,81.77
2022-12-23T11:14:41.681Z,82.71
2022-12-23T11:17:28.892Z,83.31
2022-12-23T11:20:10.553Z,83.28
2022-12-23T11:22:48.155Z,83.62
2022-12-23T11:25:27.124Z,82.67
2022-12-23T11:27:58.065Z,82.83
2022-12-23T11:30:25.011Z,82.98
2022-12-23T11:32:52.560Z,81.92
2022-12-23T11:35:26.538Z,82.41
2022-12-23T11:37:53.036Z,82.18
2022-12-23T11:40:30.235Z,82.36
2022-12-23T11:43:03.305Z,82.90
2022-12-23T11:45:34.352Z,83.12
2022-12-23T11:48:02.044Z,83.06
2022-12-23T11:50:38.173Z,83.84
2022-12-23T11:53:11.085Z,84.08
2022-12-23T11:55:44.428Z,83.82
2022-12-23T11:58:21.153Z,84.24
2022-12-23T12:00:56.024Z,84.65
2022-12-23T12:03:27.750Z,84.53
2022-12-23T12:05:59.133Z,84.24
2022-12-23T12:08:31.068Z,83.76
2022-12-23T12:11:05.983Z,83.87
2022-12-23T12:13:41.137Z,83.32
2022-12-23T12:16:20.766Z,84.18
2022-12-23T12:18:55.235Z,84.00
2022-12-23T12:21:28.435Z,84.17
2022-12-23T12:24:17.596Z,84.27
2022-12-23T12:26:50.874Z,84.63
2022-12-23T12:29:42.079Z,84.81
2022-12-23T12:32:22.433Z,84.95
2022-12-23T12:34:55.897Z,84.78
2022-12-23T12:37:40.777Z,84.90
2022-12-23T12:40:26.351Z,85.15
2022-12-23T12:42:59.919Z,85.53
2022-12-23T12:45:39.172Z,85.70
2022-12-23T12:48:27.125Z,85.45
2022-12-23T12:51:08.119Z,85.38
2022-12-23T12:53:39.771Z,85.19
2022-12-23T12:56:16.801Z,85.47
2022-12-23T12:58:44.553Z,85.37
2022-12-23T13:01:30.273Z,85.18
2022-12-23T13:04:14.666Z,85.23
2022-12-23T13:07:22.435Z,85.16
2022-12-23T13:10:09.282Z,85.50
2022-12-23T13:12:53.340Z,84.74
2022-12-23T13:15:28.531Z,84.79
2022-12-23T13:18:13.113Z,85.31
2022-12-23T13:20:46.028Z,85.20
2022-12-23T13:23:43.045Z,85.47
2022-12-23T13:26:32.160Z,85.40
2022-12-23T13:29:29.707Z,86.04
2022-12-23T13:32:02.489Z,85.73
2022-12-23T13:34:41.397Z,85.96
2022-12-23T13:37:27.855Z,86.17
2022-12-23T13:40:02.146Z,86.47
2022-12-23T13:42:37.089Z,86.23
2022-12-23T13:45:05.470Z,85.88
2022-12-23T13:48:05.622Z,85.27
2022-12-23T13:50:46.219Z,85.53
2022-12-23T13:53:34.445Z,85.72
2022-12-23T13:56:07.097Z,85.69
2022-12-23T13:58:34.036Z,86.26
2022-12-23T14:01:09.754Z,85.89
2022-12-23T14:03:38.852Z,85.57
2022-12-23T14:06:23.268Z,86.02
2022-12-23T14:08:51.363Z,86.10
2022-12-23T14:11:20.708Z,85.87
2022-12-23T14:13:50.213Z,86.00
2022-12-23T14:16:50.652Z,86.05
2022-12-23T14:19:23.198Z,86.23
2022-12-23T14:22:13.530Z,86.18
2022-12-23T14:24:59.380Z,86.40
2022-12-23T14:27:49.894Z,86.79
2022-12-23T14:30:23.593Z,86.48
2022-12-23T14:32:54.159Z,86.69
2022-12-23T14:35:46.727Z,86.50
2022-12-23T14:38:15.895Z,86.82
2022-12-23T14:40:42.270Z,86.83
2022-12-23T14:43:45.188Z,86.89
2022-12-23T14:46:30.463Z,86.61
2022-12-23T14:49:29.790Z,86.35
2022-12-23T14:51:50.576Z,86.98
2022-12-23T14:54:18.673Z,87.01
2022-12-23T14:57:00.465Z,88.10
2022-12-23T14:59:51.272Z,88.21
2022-12-23T15:02:30.459Z,88.23
2022-12-23T15:04:58.464Z,88.41
2022-12-23T15:07:35.227Z,88.67
2022-12-23T15:10:07.830Z,88.64
2022-12-23T15:12:38.523Z,88.01
2022-12-23T15:15:13.065Z,87.96
2022-12-23T15:17:39.675Z,87.82
2022-12-23T15:20:20.968Z,87.95
2022-12-23T15:22:48.021Z,87.64
2022-12-23T15:25:32.446Z,87.58
2022-12-23T15:28:02.081Z,87.60
2022-12-23T15:30:33.996Z,87.60
2022-12-23T15:33:04.213Z,88.20
2022-12-23T15:35:33.835Z,88.74
2022-12-23T15:38:01.755Z,89.17
2022-12-23T15:40:38.479Z,89.13
2022-12-23T15:43:19.619Z,89.16
2022-12-23T15:45:46.450Z,88.72
2022-12-23T15:48:27.089Z,88.76
2022-12-23T15:50:58.695Z,89.21
2022-12-23T15:53:33.403Z,89.44
2022-12-23T15:56:04.895Z,89.85
2022-12-23T15:58:33.726Z,90.01
2022-12-23T16:01:00.848Z,90.20
2022-12-23T16:03:40.593Z,90.11
2022-12-23T16:06:19.434Z,89.62
2022-12-23T16:08:59.302Z,89.43
2022-12-23T16:11:42.123Z,88.71
2022-12-23T16:14:31.044Z,88.18
2022-12-23T16:17:21.315Z,87.91
2022-12-23T16:20:20.364Z,88.47
2022-12-23T16:22:53.099Z,88.46
2022-12-23T16:25:26.010Z,87.98
2022-12-23T16:27:58.941Z,88.03
2022-12-23T16:30:30.949Z,87.94
2022-12-23T16:33:02.213Z,88.27
2022-12-23T16:35:28.662Z,87.90
2022-12-23T16:38:10.419Z,87.78
2022-12-23T16:40:36.895Z,87.33
2022-12-23T16:43:03.783Z,87.36
2022-12-23T16:45:32.822Z,87.17
2022-12-23T16:47:59.846Z,86.85
2022-12-23T16:50:26.619Z,86.89
2022-12-23T16:52:53.313Z,86.65
2022-12-23T16:55:20.394Z,86.88
2022-12-23T16:57:46.824Z,86.99
2022-12-23T17:00:16.035Z,86.72
2022-12-23T17:02:44.490Z,87.10
2022-12-23T17:05:17.043Z,87.13
2022-12-23T17:07:45.572Z,87.30
2022-12-23T17:10:13.742Z,87.33
2022-12-23T17:12:41.211Z,87.20
2022-12-23T17:15:15.400Z,87.16
2022-12-23T17:17:41.845Z,86.67
2022-12-23T17:20:09.117Z,86.77
2022-12-23T17:22:36.090Z,86.51
2022-12-23T17:25:02.783Z,86.35
2022-12-23T17:27:29.234Z,86.02
2022-12-23T17:29:55.759Z,86.21
2022-12-23T17:32:22.461Z,86.42
2022-12-23T17:34:49.110Z,86.46
2022-12-23T17:37:20.267Z,86.59
2022-12-23T17:39:47.455Z,86.66
2022-12-23T17:42:25.853Z,86.53
2022-12-23T17:44:52.785Z,86.66
2022-12-23T17:47:22.385Z,87.02
2022-12-23T17:49:49.264Z,86.85
2022-12-23T17:52:21.237Z,87.80
2022-12-23T17:54:49.479Z,88.15
2022-12-23T17:57:22.181Z,88.23
2022-12-23T17:59:49.635Z,88.12
2022-12-23T18:02:23.158Z,87.89
2022-12-23T18:04:50.005Z,87.91
2022-12-23T18:07:16.532Z,88.12
2022-12-23T18:09:43.017Z,88.09
2022-12-23T18:12:30.638Z,87.96
2022-12-23T18:14:57.161Z,87.98
2022-12-23T18:17:23.623Z,87.79
2022-12-23T18:19:50.030Z,87.91
2022-12-23T18:22:19.989Z,88.43
2022-12-23T18:24:49.388Z,88.79
2022-12-23T18:27:21.716Z,88.64
2022-12-23T18:29:48.751Z,89.00
2022-12-23T18:32:25.044Z,88.16
2022-12-23T18:34:53.049Z,87.38
2022-12-23T18:37:20.500Z,87.57
2022-12-23T18:39:47.454Z,87.52
2022-12-23T18:42:16.219Z,87.54
2022-12-23T18:44:44.311Z,86.14
2022-12-23T18:47:11.577Z,86.84
2022-12-23T18:49:38.453Z,87.23
2022-12-23T18:52:07.967Z,86.87
2022-12-23T18:54:34.815Z,85.54
2022-12-23T18:57:01.905Z,84.67
2022-12-23T18:59:30.253Z,84.62
2022-12-23T19:01:57.635Z,84.61
2022-12-23T19:04:24.312Z,84.64
2022-12-23T19:06:50.841Z,84.80
2022-12-23T19:09:19.704Z,84.72
2022-12-23T19:11:48.211Z,84.00
2022-12-23T19:14:14.991Z,83.49
2022-12-23T19:16:47.493Z,84.16
2022-12-23T19:19:17.529Z,84.48
2022-12-23T19:21:43.959Z,84.95
2022-12-23T19:24:10.472Z,84.00
2022-12-23T19:26:36.925Z,84.38
2022-12-23T19:29:03.407Z,83.54
2022-12-23T19:31:30.040Z,83.50
2022-12-23T19:33:56.589Z,82.99
2022-12-23T19:36:23.445Z,82.18
2022-12-23T19:38:49.942Z,82.19
2022-12-23T19:41:16.568Z,82.79
2022-12-23T19:43:45.330Z,84.19
2022-12-23T19:46:13.411Z,85.57
2022-12-23T19:48:40.090Z,85.67
2022-12-23T19:51:09.389Z,85.70
2022-12-23T19:53:36.082Z,85.35
2022-12-23T19:56:04.599Z,85.55
2022-12-23T19:58:33.252Z,85.13
2022-12-23T20:01:15.411Z,84.54
2022-12-23T20:03:43.465Z,84.53
2022-12-23T20:06:39.512Z,84.19
2022-12-23T20:09:07.567Z,83.96
2022-12-23T20:11:42.907Z,83.73
2022-12-23T20:14:10.442Z,83.30
2022-12-23T20:16:37.964Z,83.27
2022-12-23T20:19:05.176Z,83.56
2022-12-23T20:21:31.634Z,83.06
2022-12-23T20:23:58.197Z,83.38
2022-12-23T20:26:24.852Z,83.49
2022-12-23T20:28:51.328Z,82.89
2022-12-23T20:31:20.725Z,82.97
2022-12-23T20:33:48.265Z,82.69
2022-12-23T20:36:16.849Z,82.60
2022-12-23T20:38:45.112Z,82.47
2022-12-23T20:41:14.235Z,82.91
2022-12-23T20:43:40.952Z,82.63
2022-12-23T20:46:10.225Z,83.10
2022-12-23T20:48:37.201Z,83.05
2022-12-23T20:51:24.365Z,82.96
2022-12-23T20:53:53.045Z,81.88
2022-12-23T20:56:21.100Z,80.75
2022-12-23T20:59:02.272Z,81.56
2022-12-23T21:01:39.131Z,81.06
2022-12-23T21:04:16.088Z,81.04
2022-12-23T21:06:43.706Z,80.64
2022-12-23T21:09:12.292Z,82.04
2022-12-23T21:11:41.409Z,82.83
2022-12-23T21:14:08.103Z,82.90
2022-12-23T21:16:38.249Z,82.26
2022-12-23T21:19:06.590Z,81.94
2022-12-23T21:21:33.489Z,82.03
2022-12-23T21:24:04.295Z,82.21
2022-12-23T21:26:32.958Z,81.79
2022-12-23T21:29:00.897Z,81.40
2022-12-23T21:31:29.684Z,80.03
2022-12-23T21:33:56.761Z,79.44
2022-12-23T21:36:26.070Z,79.50
2022-12-23T21:38:52.650Z,79.30
2022-12-23T21:41:22.327Z,78.18
2022-12-23T21:43:49.552Z,77.98
2022-12-23T21:46:18.935Z,77.29
2022-12-23T21:48:45.954Z,77.65
2022-12-23T21:51:16.986Z,77.71
2022-12-23T21:53:44.983Z,76.93
2022-12-23T21:56:16.865Z,75.87
2022-12-23T21:58:44.019Z,76.71
2022-12-23T22:01:13.639Z,77.32
2022-12-23T22:03:40.596Z,77.11
2022-12-23T22:06:10.822Z,77.86
2022-12-23T22:08:38.650Z,77.80
2022-12-23T22:11:13.884Z,78.25
2022-12-23T22:13:41.539Z,78.01
2022-12-23T22:16:13.775Z,78.42
2022-12-23T22:18:41.109Z,78.00
2022-12-23T22:21:16.829Z,78.54
2022-12-23T22:23:43.800Z,78.37
2022-12-23T22:26:17.482Z,78.18
2022-12-23T22:28:46.955Z,78.46
2022-12-23T22:31:17.988Z,78.55
2022-12-23T22:33:45.281Z,78.68
2022-12-23T22:36:13.268Z,78.66
2022-12-23T22:38:40.497Z,77.79
2022-12-23T22:41:07.998Z,77.90
2022-12-23T22:43:34.761Z,77.85
2022-12-23T22:46:02.404Z,77.89
2022-12-23T22:48:30.339Z,78.33
2022-12-23T22:51:10.792Z,78.41
2022-12-23T22:53:37.562Z,78.66
2022-12-23T22:56:05.805Z,78.86
2022-12-23T22:58:33.585Z,78.98
2022-12-23T23:01:00.806Z,79.08
2022-12-23T23:03:28.785Z,79.01
2022-12-23T23:05:56.418Z,78.57
2022-12-23T23:08:24.051Z,78.38
2022-12-23T23:10:51.710Z,78.98
2022-12-23T23:13:18.579Z,79.15
2022-12-23T23:15:47.713Z,79.62
2022-12-23T23:18:14.862Z,79.11
2022-12-23T23:20:41.660Z,78.82
2022-12-23T23:23:08.206Z,78.84
2022-12-23T23:25:34.750Z,79.29
2022-12-23T23:28:01.268Z,79.43
2022-12-23T23:30:27.726Z,79.51
2022-12-23T23:32:54.183Z,79.83
2022-12-23T23:35:20.595Z,80.02
2022-12-23T23:37:47.035Z,79.94
2022-12-23T23:40:13.516Z,79.58
2022-12-23T23:42:40.007Z,79.71
2022-12-23T23:45:07.001Z,79.51
2022-12-23T23:47:34.724Z,79.36
2022-12-23T23:50:01.991Z,78.99
2022-12-23T23:52:29.024Z,78.79
2022-12-23T23:54:55.592Z,79.07
2022-12-23T23:57:22.570Z,78.77
2022-12-23T23:59:49.153Z,78.67
